sensor_id;sensor_type;location;lat;lon;timestamp;P1;durP1;ratioP1;P2;durP2;ratioP2
54555;SDS011;57291;37.520;15.106;2024-01-16T00:01:17;14.85;;;3.47;;
54555;SDS011;57291;37.520;15.106;2024-01-16T00:03:45;10.00;;;2.88;;
54555;SDS011;57291;37.520;15.106;2024-01-16T00:06:12;12.82;;;3.08;;
54555;SDS011;57291;37.520;15.106;2024-01-16T00:08:39;10.77;;;3.35;;
54555;SDS011;57291;37.520;15.106;2024-01-16T00:11:07;12.63;;;2.50;;
54555;SDS011;57291;37.520;15.106;2024-01-16T00:13:34;13.20;;;2.92;;
54555;SDS011;57291;37.520;15.106;2024-01-16T00:16:02;10.82;;;2.72;;
54555;SDS011;57291;37.520;15.106;2024-01-16T00:18:33;9.95;;;2.45;;
54555;SDS011;57291;37.520;15.106;2024-01-16T00:21:01;11.88;;;2.97;;
54555;SDS011;57291;37.520;15.106;2024-01-16T00:23:31;9.73;;;2.38;;
54555;SDS011;57291;37.520;15.106;2024-01-16T00:25:59;10.88;;;2.72;;
54555;SDS011;57291;37.520;15.106;2024-01-16T00:28:27;12.80;;;3.35;;
54555;SDS011;57291;37.520;15.106;2024-01-16T00:30:54;11.48;;;2.65;;
54555;SDS011;57291;37.520;15.106;2024-01-16T00:33:21;12.25;;;2.90;;
54555;SDS011;57291;37.520;15.106;2024-01-16T00:35:49;14.27;;;2.67;;
54555;SDS011;57291;37.520;15.106;2024-01-16T00:38:17;8.48;;;2.75;;
54555;SDS011;57291;37.520;15.106;2024-01-16T00:40:44;12.73;;;2.95;;
54555;SDS011;57291;37.520;15.106;2024-01-16T00:43:13;5.88;;;2.35;;
54555;SDS011;57291;37.520;15.106;2024-01-16T00:45:40;8.48;;;2.50;;
54555;SDS011;57291;37.520;15.106;2024-01-16T00:48:07;11.05;;;2.50;;
54555;SDS011;57291;37.520;15.106;2024-01-16T00:50:37;8.02;;;2.38;;
54555;SDS011;57291;37.520;15.106;2024-01-16T00:53:05;7.97;;;2.42;;
54555;SDS011;57291;37.520;15.106;2024-01-16T00:55:32;6.45;;;1.98;;
54555;SDS011;57291;37.520;15.106;2024-01-16T00:58:00;10.38;;;2.65;;
54555;SDS011;57291;37.520;15.106;2024-01-16T01:00:28;7.63;;;2.10;;
54555;SDS011;57291;37.520;15.106;2024-01-16T01:02:57;9.90;;;2.33;;
54555;SDS011;57291;37.520;15.106;2024-01-16T01:05:28;7.93;;;2.28;;
54555;SDS011;57291;37.520;15.106;2024-01-16T01:07:56;9.90;;;2.40;;
54555;SDS011;57291;37.520;15.106;2024-01-16T01:10:23;6.63;;;2.33;;
54555;SDS011;57291;37.520;15.106;2024-01-16T01:12:51;7.22;;;2.10;;
54555;SDS011;57291;37.520;15.106;2024-01-16T01:15:20;6.90;;;2.30;;
54555;SDS011;57291;37.520;15.106;2024-01-16T01:17:48;6.93;;;1.90;;
54555;SDS011;57291;37.520;15.106;2024-01-16T01:20:17;7.78;;;1.95;;
54555;SDS011;57291;37.520;15.106;2024-01-16T01:22:45;8.82;;;2.00;;
54555;SDS011;57291;37.520;15.106;2024-01-16T01:25:13;9.18;;;2.13;;
54555;SDS011;57291;37.520;15.106;2024-01-16T01:27:40;9.88;;;2.17;;
54555;SDS011;57291;37.520;15.106;2024-01-16T01:30:08;4.85;;;1.65;;
54555;SDS011;57291;37.520;15.106;2024-01-16T01:32:37;5.63;;;2.28;;
54555;SDS011;57291;37.520;15.106;2024-01-16T01:35:06;6.40;;;1.60;;
54555;SDS011;57291;37.520;15.106;2024-01-16T01:37:35;5.80;;;1.60;;
54555;SDS011;57291;37.520;15.106;2024-01-16T01:40:02;9.73;;;1.80;;
54555;SDS011;57291;37.520;15.106;2024-01-16T01:42:30;11.73;;;1.88;;
54555;SDS011;57291;37.520;15.106;2024-01-16T01:44:57;2.65;;;1.40;;
54555;SDS011;57291;37.520;15.106;2024-01-16T01:47:25;4.78;;;1.70;;
54555;SDS011;57291;37.520;15.106;2024-01-16T01:49:52;7.00;;;1.85;;
54555;SDS011;57291;37.520;15.106;2024-01-16T01:52:20;8.65;;;1.50;;
54555;SDS011;57291;37.520;15.106;2024-01-16T01:54:47;6.20;;;1.90;;
54555;SDS011;57291;37.520;15.106;2024-01-16T01:57:15;5.90;;;1.90;;
54555;SDS011;57291;37.520;15.106;2024-01-16T01:59:43;7.88;;;1.80;;
54555;SDS011;57291;37.520;15.106;2024-01-16T02:02:10;6.45;;;1.70;;
54555;SDS011;57291;37.520;15.106;2024-01-16T02:04:39;4.65;;;1.77;;
54555;SDS011;57291;37.520;15.106;2024-01-16T02:07:10;9.48;;;2.00;;
54555;SDS011;57291;37.520;15.106;2024-01-16T02:09:37;9.45;;;2.20;;
54555;SDS011;57291;37.520;15.106;2024-01-16T02:12:05;8.65;;;2.33;;
54555;SDS011;57291;37.520;15.106;2024-01-16T02:14:34;10.00;;;2.00;;
54555;SDS011;57291;37.520;15.106;2024-01-16T02:17:01;4.47;;;1.80;;
54555;SDS011;57291;37.520;15.106;2024-01-16T02:19:29;7.72;;;2.10;;
54555;SDS011;57291;37.520;15.106;2024-01-16T02:21:58;5.30;;;1.75;;
54555;SDS011;57291;37.520;15.106;2024-01-16T02:24:28;7.30;;;1.90;;
54555;SDS011;57291;37.520;15.106;2024-01-16T02:26:55;8.55;;;2.17;;
54555;SDS011;57291;37.520;15.106;2024-01-16T02:29:23;6.82;;;1.70;;
54555;SDS011;57291;37.520;15.106;2024-01-16T02:31:51;6.35;;;1.92;;
54555;SDS011;57291;37.520;15.106;2024-01-16T02:34:18;10.45;;;2.40;;
54555;SDS011;57291;37.520;15.106;2024-01-16T02:36:46;5.78;;;1.70;;
54555;SDS011;57291;37.520;15.106;2024-01-16T02:39:13;7.07;;;2.25;;
54555;SDS011;57291;37.520;15.106;2024-01-16T02:41:41;10.32;;;2.30;;
54555;SDS011;57291;37.520;15.106;2024-01-16T02:44:09;6.95;;;1.85;;
54555;SDS011;57291;37.520;15.106;2024-01-16T02:46:36;6.43;;;1.80;;
54555;SDS011;57291;37.520;15.106;2024-01-16T02:49:06;6.50;;;2.00;;
54555;SDS011;57291;37.520;15.106;2024-01-16T02:51:34;8.02;;;1.85;;
54555;SDS011;57291;37.520;15.106;2024-01-16T02:54:01;5.80;;;1.60;;
54555;SDS011;57291;37.520;15.106;2024-01-16T02:56:28;6.07;;;1.70;;
54555;SDS011;57291;37.520;15.106;2024-01-16T02:58:56;5.85;;;1.80;;
54555;SDS011;57291;37.520;15.106;2024-01-16T03:01:23;5.03;;;1.75;;
54555;SDS011;57291;37.520;15.106;2024-01-16T03:03:50;9.77;;;2.00;;
54555;SDS011;57291;37.520;15.106;2024-01-16T03:06:24;5.22;;;1.92;;
54555;SDS011;57291;37.520;15.106;2024-01-16T03:08:52;7.97;;;1.90;;
54555;SDS011;57291;37.520;15.106;2024-01-16T03:11:19;7.28;;;1.80;;
54555;SDS011;57291;37.520;15.106;2024-01-16T03:13:46;6.13;;;2.08;;
54555;SDS011;57291;37.520;15.106;2024-01-16T03:16:16;10.93;;;2.05;;
54555;SDS011;57291;37.520;15.106;2024-01-16T03:18:43;6.25;;;2.15;;
54555;SDS011;57291;37.520;15.106;2024-01-16T03:21:12;7.03;;;1.92;;
54555;SDS011;57291;37.520;15.106;2024-01-16T03:23:40;6.95;;;1.98;;
54555;SDS011;57291;37.520;15.106;2024-01-16T03:26:11;8.57;;;1.98;;
54555;SDS011;57291;37.520;15.106;2024-01-16T03:28:42;5.82;;;1.83;;
54555;SDS011;57291;37.520;15.106;2024-01-16T03:31:10;6.15;;;1.65;;
54555;SDS011;57291;37.520;15.106;2024-01-16T03:33:40;8.07;;;2.13;;
54555;SDS011;57291;37.520;15.106;2024-01-16T03:36:10;7.03;;;2.17;;
54555;SDS011;57291;37.520;15.106;2024-01-16T03:38:40;8.38;;;2.58;;
54555;SDS011;57291;37.520;15.106;2024-01-16T03:41:12;5.47;;;2.05;;
54555;SDS011;57291;37.520;15.106;2024-01-16T03:43:40;6.97;;;1.73;;
54555;SDS011;57291;37.520;15.106;2024-01-16T03:46:10;7.18;;;1.70;;
54555;SDS011;57291;37.520;15.106;2024-01-16T03:48:38;7.45;;;1.83;;
54555;SDS011;57291;37.520;15.106;2024-01-16T03:51:06;7.85;;;1.80;;
54555;SDS011;57291;37.520;15.106;2024-01-16T03:53:33;10.05;;;1.92;;
54555;SDS011;57291;37.520;15.106;2024-01-16T03:56:01;5.60;;;1.77;;
54555;SDS011;57291;37.520;15.106;2024-01-16T03:58:28;6.95;;;1.52;;
54555;SDS011;57291;37.520;15.106;2024-01-16T04:00:55;8.00;;;1.70;;
54555;SDS011;57291;37.520;15.106;2024-01-16T04:03:23;6.47;;;1.50;;
54555;SDS011;57291;37.520;15.106;2024-01-16T04:05:51;7.93;;;1.45;;
54555;SDS011;57291;37.520;15.106;2024-01-16T04:08:18;6.13;;;1.65;;
54555;SDS011;57291;37.520;15.106;2024-01-16T04:10:45;4.97;;;1.50;;
54555;SDS011;57291;37.520;15.106;2024-01-16T04:13:13;5.22;;;2.10;;
54555;SDS011;57291;37.520;15.106;2024-01-16T04:15:40;6.05;;;1.40;;
54555;SDS011;57291;37.520;15.106;2024-01-16T04:18:07;3.88;;;1.80;;
54555;SDS011;57291;37.520;15.106;2024-01-16T04:20:35;10.35;;;1.80;;
54555;SDS011;57291;37.520;15.106;2024-01-16T04:23:03;4.68;;;1.70;;
54555;SDS011;57291;37.520;15.106;2024-01-16T04:25:30;4.50;;;1.73;;
54555;SDS011;57291;37.520;15.106;2024-01-16T04:27:58;3.95;;;1.33;;
54555;SDS011;57291;37.520;15.106;2024-01-16T04:30:29;5.85;;;1.80;;
54555;SDS011;57291;37.520;15.106;2024-01-16T04:32:56;6.22;;;1.30;;
54555;SDS011;57291;37.520;15.106;2024-01-16T04:35:24;11.48;;;1.77;;
54555;SDS011;57291;37.520;15.106;2024-01-16T04:37:51;3.90;;;1.52;;
54555;SDS011;57291;37.520;15.106;2024-01-16T04:40:19;4.95;;;1.70;;
54555;SDS011;57291;37.520;15.106;2024-01-16T04:42:46;3.33;;;1.55;;
54555;SDS011;57291;37.520;15.106;2024-01-16T04:45:13;4.45;;;1.27;;
54555;SDS011;57291;37.520;15.106;2024-01-16T04:47:41;3.38;;;1.13;;
54555;SDS011;57291;37.520;15.106;2024-01-16T04:50:09;4.70;;;1.50;;
54555;SDS011;57291;37.520;15.106;2024-01-16T04:52:37;3.70;;;1.20;;
54555;SDS011;57291;37.520;15.106;2024-01-16T04:55:04;4.63;;;1.15;;
54555;SDS011;57291;37.520;15.106;2024-01-16T04:57:33;5.03;;;1.45;;
54555;SDS011;57291;37.520;15.106;2024-01-16T05:00:00;5.10;;;1.08;;
54555;SDS011;57291;37.520;15.106;2024-01-16T05:02:28;3.75;;;1.42;;
54555;SDS011;57291;37.520;15.106;2024-01-16T05:04:55;3.25;;;1.40;;
54555;SDS011;57291;37.520;15.106;2024-01-16T05:07:23;1.80;;;1.13;;
54555;SDS011;57291;37.520;15.106;2024-01-16T05:09:50;5.75;;;1.50;;
54555;SDS011;57291;37.520;15.106;2024-01-16T05:12:18;1.98;;;1.10;;
54555;SDS011;57291;37.520;15.106;2024-01-16T05:14:45;4.35;;;1.48;;
54555;SDS011;57291;37.520;15.106;2024-01-16T05:17:12;2.78;;;1.20;;
54555;SDS011;57291;37.520;15.106;2024-01-16T05:19:40;3.25;;;1.10;;
54555;SDS011;57291;37.520;15.106;2024-01-16T05:22:09;2.53;;;0.93;;
54555;SDS011;57291;37.520;15.106;2024-01-16T05:24:37;4.25;;;1.00;;
54555;SDS011;57291;37.520;15.106;2024-01-16T05:27:04;5.40;;;1.27;;
54555;SDS011;57291;37.520;15.106;2024-01-16T05:29:32;2.97;;;1.25;;
54555;SDS011;57291;37.520;15.106;2024-01-16T05:31:59;3.58;;;1.20;;
54555;SDS011;57291;37.520;15.106;2024-01-16T05:34:26;5.25;;;1.27;;
54555;SDS011;57291;37.520;15.106;2024-01-16T05:36:55;3.95;;;1.42;;
54555;SDS011;57291;37.520;15.106;2024-01-16T05:39:23;3.10;;;1.75;;
54555;SDS011;57291;37.520;15.106;2024-01-16T05:41:52;3.55;;;1.30;;
54555;SDS011;57291;37.520;15.106;2024-01-16T05:44:19;3.33;;;1.10;;
54555;SDS011;57291;37.520;15.106;2024-01-16T05:46:47;2.80;;;1.10;;
54555;SDS011;57291;37.520;15.106;2024-01-16T05:49:14;3.55;;;1.23;;
54555;SDS011;57291;37.520;15.106;2024-01-16T05:51:41;2.92;;;1.08;;
54555;SDS011;57291;37.520;15.106;2024-01-16T05:54:09;4.95;;;1.20;;
54555;SDS011;57291;37.520;15.106;2024-01-16T05:56:36;4.82;;;1.40;;
54555;SDS011;57291;37.520;15.106;2024-01-16T05:59:04;24.33;;;10.75;;
54555;SDS011;57291;37.520;15.106;2024-01-16T06:01:31;11.32;;;5.45;;
54555;SDS011;57291;37.520;15.106;2024-01-16T06:03:59;7.40;;;2.40;;
54555;SDS011;57291;37.520;15.106;2024-01-16T06:06:26;7.72;;;2.15;;
54555;SDS011;57291;37.520;15.106;2024-01-16T06:08:54;4.15;;;2.00;;
54555;SDS011;57291;37.520;15.106;2024-01-16T06:11:31;4.47;;;1.75;;
54555;SDS011;57291;37.520;15.106;2024-01-16T06:13:59;5.28;;;2.35;;
54555;SDS011;57291;37.520;15.106;2024-01-16T06:16:27;3.83;;;1.98;;
54555;SDS011;57291;37.520;15.106;2024-01-16T06:18:54;6.85;;;1.90;;
54555;SDS011;57291;37.520;15.106;2024-01-16T06:21:22;7.38;;;1.73;;
54555;SDS011;57291;37.520;15.106;2024-01-16T06:23:50;3.30;;;1.90;;
54555;SDS011;57291;37.520;15.106;2024-01-16T06:26:18;6.90;;;2.20;;
54555;SDS011;57291;37.520;15.106;2024-01-16T06:28:45;6.32;;;2.45;;
54555;SDS011;57291;37.520;15.106;2024-01-16T06:31:12;9.82;;;2.90;;
54555;SDS011;57291;37.520;15.106;2024-01-16T06:33:40;9.55;;;3.20;;
54555;SDS011;57291;37.520;15.106;2024-01-16T06:36:08;9.00;;;2.25;;
54555;SDS011;57291;37.520;15.106;2024-01-16T06:38:37;8.18;;;2.00;;
54555;SDS011;57291;37.520;15.106;2024-01-16T06:41:06;7.40;;;2.28;;
54555;SDS011;57291;37.520;15.106;2024-01-16T06:43:33;6.88;;;2.00;;
54555;SDS011;57291;37.520;15.106;2024-01-16T06:46:01;4.97;;;1.95;;
54555;SDS011;57291;37.520;15.106;2024-01-16T06:48:28;6.00;;;1.65;;
54555;SDS011;57291;37.520;15.106;2024-01-16T06:50:56;6.68;;;2.08;;
54555;SDS011;57291;37.520;15.106;2024-01-16T06:53:23;7.43;;;1.98;;
54555;SDS011;57291;37.520;15.106;2024-01-16T06:55:51;5.40;;;1.85;;
54555;SDS011;57291;37.520;15.106;2024-01-16T06:58:18;5.68;;;1.35;;
54555;SDS011;57291;37.520;15.106;2024-01-16T07:00:46;5.15;;;1.67;;
54555;SDS011;57291;37.520;15.106;2024-01-16T07:03:14;4.68;;;1.90;;
54555;SDS011;57291;37.520;15.106;2024-01-16T07:05:41;8.48;;;5.80;;
54555;SDS011;57291;37.520;15.106;2024-01-16T07:08:10;11.35;;;8.30;;
54555;SDS011;57291;37.520;15.106;2024-01-16T07:10:37;11.57;;;5.07;;
54555;SDS011;57291;37.520;15.106;2024-01-16T07:13:05;9.73;;;4.78;;
54555;SDS011;57291;37.520;15.106;2024-01-16T07:15:34;6.15;;;3.20;;
54555;SDS011;57291;37.520;15.106;2024-01-16T07:18:01;8.60;;;2.45;;
54555;SDS011;57291;37.520;15.106;2024-01-16T07:20:29;5.38;;;2.30;;
54555;SDS011;57291;37.520;15.106;2024-01-16T07:22:56;5.57;;;2.38;;
54555;SDS011;57291;37.520;15.106;2024-01-16T07:25:25;6.97;;;2.90;;
54555;SDS011;57291;37.520;15.106;2024-01-16T07:27:52;5.57;;;2.03;;
54555;SDS011;57291;37.520;15.106;2024-01-16T07:30:19;5.88;;;2.10;;
54555;SDS011;57291;37.520;15.106;2024-01-16T07:32:47;6.15;;;1.85;;
54555;SDS011;57291;37.520;15.106;2024-01-16T07:35:15;7.10;;;2.13;;
54555;SDS011;57291;37.520;15.106;2024-01-16T07:37:42;5.90;;;1.77;;
54555;SDS011;57291;37.520;15.106;2024-01-16T07:40:10;6.57;;;2.00;;
54555;SDS011;57291;37.520;15.106;2024-01-16T07:42:39;6.70;;;2.00;;
54555;SDS011;57291;37.520;15.106;2024-01-16T07:45:06;6.57;;;2.42;;
54555;SDS011;57291;37.520;15.106;2024-01-16T07:47:34;7.68;;;2.50;;
54555;SDS011;57291;37.520;15.106;2024-01-16T07:50:03;5.82;;;2.60;;
54555;SDS011;57291;37.520;15.106;2024-01-16T07:52:34;5.03;;;2.17;;
54555;SDS011;57291;37.520;15.106;2024-01-16T07:55:01;7.47;;;2.53;;
54555;SDS011;57291;37.520;15.106;2024-01-16T07:57:30;6.28;;;2.97;;
54555;SDS011;57291;37.520;15.106;2024-01-16T07:59:57;9.02;;;3.20;;
54555;SDS011;57291;37.520;15.106;2024-01-16T08:02:31;11.10;;;4.00;;
54555;SDS011;57291;37.520;15.106;2024-01-16T08:05:01;11.68;;;3.50;;
54555;SDS011;57291;37.520;15.106;2024-01-16T08:07:28;12.48;;;3.58;;
54555;SDS011;57291;37.520;15.106;2024-01-16T08:09:55;11.20;;;4.50;;
54555;SDS011;57291;37.520;15.106;2024-01-16T08:12:23;10.25;;;4.32;;
54555;SDS011;57291;37.520;15.106;2024-01-16T08:14:50;10.68;;;3.65;;
54555;SDS011;57291;37.520;15.106;2024-01-16T08:17:19;9.85;;;3.40;;
54555;SDS011;57291;37.520;15.106;2024-01-16T08:19:46;11.68;;;3.53;;
54555;SDS011;57291;37.520;15.106;2024-01-16T08:22:13;11.20;;;3.58;;
54555;SDS011;57291;37.520;15.106;2024-01-16T08:24:41;9.88;;;3.35;;
54555;SDS011;57291;37.520;15.106;2024-01-16T08:27:08;12.95;;;3.58;;
54555;SDS011;57291;37.520;15.106;2024-01-16T08:29:35;10.75;;;3.28;;
54555;SDS011;57291;37.520;15.106;2024-01-16T08:32:03;12.27;;;4.13;;
54555;SDS011;57291;37.520;15.106;2024-01-16T08:34:31;10.73;;;3.92;;
54555;SDS011;57291;37.520;15.106;2024-01-16T08:36:58;13.82;;;4.07;;
54555;SDS011;57291;37.520;15.106;2024-01-16T08:39:25;11.00;;;3.58;;
54555;SDS011;57291;37.520;15.106;2024-01-16T08:41:54;8.85;;;3.88;;
54555;SDS011;57291;37.520;15.106;2024-01-16T08:44:24;14.20;;;4.63;;
54555;SDS011;57291;37.520;15.106;2024-01-16T08:46:52;15.95;;;4.85;;
54555;SDS011;57291;37.520;15.106;2024-01-16T08:49:19;15.05;;;4.50;;
54555;SDS011;57291;37.520;15.106;2024-01-16T08:51:47;15.95;;;4.57;;
54555;SDS011;57291;37.520;15.106;2024-01-16T08:54:14;14.23;;;4.35;;
54555;SDS011;57291;37.520;15.106;2024-01-16T08:56:42;15.73;;;3.80;;
54555;SDS011;57291;37.520;15.106;2024-01-16T08:59:10;10.32;;;2.90;;
54555;SDS011;57291;37.520;15.106;2024-01-16T09:01:37;12.75;;;3.88;;
54555;SDS011;57291;37.520;15.106;2024-01-16T09:04:06;9.27;;;3.40;;
54555;SDS011;57291;37.520;15.106;2024-01-16T09:06:33;19.80;;;3.88;;
54555;SDS011;57291;37.520;15.106;2024-01-16T09:09:01;13.65;;;3.67;;
54555;SDS011;57291;37.520;15.106;2024-01-16T09:11:31;15.40;;;3.90;;
54555;SDS011;57291;37.520;15.106;2024-01-16T09:13:59;18.60;;;2.72;;
54555;SDS011;57291;37.520;15.106;2024-01-16T09:16:30;11.30;;;2.92;;
54555;SDS011;57291;37.520;15.106;2024-01-16T09:18:57;11.38;;;3.00;;
54555;SDS011;57291;37.520;15.106;2024-01-16T09:21:25;10.50;;;2.60;;
54555;SDS011;57291;37.520;15.106;2024-01-16T09:23:52;18.08;;;3.20;;
54555;SDS011;57291;37.520;15.106;2024-01-16T09:26:20;13.23;;;3.05;;
54555;SDS011;57291;37.520;15.106;2024-01-16T09:28:47;11.43;;;3.38;;
54555;SDS011;57291;37.520;15.106;2024-01-16T09:31:15;11.35;;;2.97;;
54555;SDS011;57291;37.520;15.106;2024-01-16T09:33:43;12.38;;;3.25;;
54555;SDS011;57291;37.520;15.106;2024-01-16T09:36:10;14.50;;;3.70;;
54555;SDS011;57291;37.520;15.106;2024-01-16T09:38:38;10.80;;;3.30;;
54555;SDS011;57291;37.520;15.106;2024-01-16T09:41:05;10.25;;;3.85;;
54555;SDS011;57291;37.520;15.106;2024-01-16T09:43:32;11.93;;;3.22;;
54555;SDS011;57291;37.520;15.106;2024-01-16T09:46:01;17.35;;;3.83;;
54555;SDS011;57291;37.520;15.106;2024-01-16T09:48:29;10.70;;;3.42;;
54555;SDS011;57291;37.520;15.106;2024-01-16T09:50:59;9.35;;;3.20;;
54555;SDS011;57291;37.520;15.106;2024-01-16T09:53:26;15.15;;;3.30;;
54555;SDS011;57291;37.520;15.106;2024-01-16T09:55:54;11.25;;;3.30;;
54555;SDS011;57291;37.520;15.106;2024-01-16T09:58:25;12.60;;;3.45;;
54555;SDS011;57291;37.520;15.106;2024-01-16T10:00:55;15.55;;;3.03;;
54555;SDS011;57291;37.520;15.106;2024-01-16T10:03:23;14.52;;;3.33;;
54555;SDS011;57291;37.520;15.106;2024-01-16T10:05:51;13.45;;;3.60;;
54555;SDS011;57291;37.520;15.106;2024-01-16T10:08:18;20.73;;;4.32;;
54555;SDS011;57291;37.520;15.106;2024-01-16T10:10:48;16.52;;;4.50;;
54555;SDS011;57291;37.520;15.106;2024-01-16T10:13:19;15.85;;;4.57;;
54555;SDS011;57291;37.520;15.106;2024-01-16T10:15:49;17.52;;;4.43;;
54555;SDS011;57291;37.520;15.106;2024-01-16T10:18:26;13.02;;;3.40;;
54555;SDS011;57291;37.520;15.106;2024-01-16T10:20:59;17.88;;;3.95;;
54555;SDS011;57291;37.520;15.106;2024-01-16T10:23:27;15.15;;;3.80;;
54555;SDS011;57291;37.520;15.106;2024-01-16T10:26:14;11.75;;;3.38;;
54555;SDS011;57291;37.520;15.106;2024-01-16T10:28:42;12.45;;;3.17;;
54555;SDS011;57291;37.520;15.106;2024-01-16T10:31:10;10.57;;;3.15;;
54555;SDS011;57291;37.520;15.106;2024-01-16T10:33:41;14.73;;;3.63;;
54555;SDS011;57291;37.520;15.106;2024-01-16T10:36:13;10.93;;;3.25;;
54555;SDS011;57291;37.520;15.106;2024-01-16T10:38:44;10.23;;;3.08;;
54555;SDS011;57291;37.520;15.106;2024-01-16T10:41:12;10.48;;;3.25;;
54555;SDS011;57291;37.520;15.106;2024-01-16T10:43:41;10.30;;;2.85;;
54555;SDS011;57291;37.520;15.106;2024-01-16T10:46:15;10.25;;;2.97;;
54555;SDS011;57291;37.520;15.106;2024-01-16T10:48:44;14.48;;;3.45;;
54555;SDS011;57291;37.520;15.106;2024-01-16T10:51:27;15.18;;;3.22;;
54555;SDS011;57291;37.520;15.106;2024-01-16T10:53:59;14.10;;;3.20;;
54555;SDS011;57291;37.520;15.106;2024-01-16T10:56:31;7.47;;;2.65;;
54555;SDS011;57291;37.520;15.106;2024-01-16T10:59:03;9.23;;;2.40;;
54555;SDS011;57291;37.520;15.106;2024-01-16T11:01:39;16.35;;;2.90;;
54555;SDS011;57291;37.520;15.106;2024-01-16T11:06:41;12.48;;;2.85;;
54555;SDS011;57291;37.520;15.106;2024-01-16T11:09:12;8.70;;;2.38;;
54555;SDS011;57291;37.520;15.106;2024-01-16T11:11:45;7.97;;;2.38;;
54555;SDS011;57291;37.520;15.106;2024-01-16T11:14:13;10.95;;;2.30;;
54555;SDS011;57291;37.520;15.106;2024-01-16T11:16:42;10.20;;;2.58;;
54555;SDS011;57291;37.520;15.106;2024-01-16T11:19:13;12.15;;;2.10;;
54555;SDS011;57291;37.520;15.106;2024-01-16T11:22:03;5.47;;;1.75;;
54555;SDS011;57291;37.520;15.106;2024-01-16T11:24:31;5.80;;;2.13;;
54555;SDS011;57291;37.520;15.106;2024-01-16T11:26:59;5.82;;;1.90;;
54555;SDS011;57291;37.520;15.106;2024-01-16T11:31:55;11.60;;;2.40;;
54555;SDS011;57291;37.520;15.106;2024-01-16T11:37:12;10.57;;;2.28;;
54555;SDS011;57291;37.520;15.106;2024-01-16T11:39:40;10.95;;;2.30;;
54555;SDS011;57291;37.520;15.106;2024-01-16T11:42:08;9.30;;;2.50;;
54555;SDS011;57291;37.520;15.106;2024-01-16T11:44:45;7.32;;;1.65;;
54555;SDS011;57291;37.520;15.106;2024-01-16T11:47:23;12.00;;;2.42;;
54555;SDS011;57291;37.520;15.106;2024-01-16T11:49:51;6.97;;;2.00;;
54555;SDS011;57291;37.520;15.106;2024-01-16T11:52:39;11.45;;;2.63;;
54555;SDS011;57291;37.520;15.106;2024-01-16T11:58:08;12.90;;;2.40;;
54555;SDS011;57291;37.520;15.106;2024-01-16T12:00:57;12.35;;;2.55;;
54555;SDS011;57291;37.520;15.106;2024-01-16T12:03:24;8.15;;;2.00;;
54555;SDS011;57291;37.520;15.106;2024-01-16T12:06:01;10.00;;;2.25;;
54555;SDS011;57291;37.520;15.106;2024-01-16T12:08:30;7.18;;;2.00;;
54555;SDS011;57291;37.520;15.106;2024-01-16T12:10:57;6.07;;;1.90;;
54555;SDS011;57291;37.520;15.106;2024-01-16T12:13:26;8.02;;;2.10;;
54555;SDS011;57291;37.520;15.106;2024-01-16T12:16:03;10.40;;;2.28;;
54555;SDS011;57291;37.520;15.106;2024-01-16T12:18:32;4.50;;;1.52;;
54555;SDS011;57291;37.520;15.106;2024-01-16T12:21:11;5.32;;;1.42;;
54555;SDS011;57291;37.520;15.106;2024-01-16T12:23:40;7.20;;;1.50;;
54555;SDS011;57291;37.520;15.106;2024-01-16T12:26:24;5.93;;;1.20;;
54555;SDS011;57291;37.520;15.106;2024-01-16T12:28:52;6.20;;;1.63;;
54555;SDS011;57291;37.520;15.106;2024-01-16T12:31:28;6.68;;;2.28;;
54555;SDS011;57291;37.520;15.106;2024-01-16T12:34:05;5.10;;;1.30;;
54555;SDS011;57291;37.520;15.106;2024-01-16T12:36:36;5.32;;;1.52;;
54555;SDS011;57291;37.520;15.106;2024-01-16T12:39:07;4.72;;;1.30;;
54555;SDS011;57291;37.520;15.106;2024-01-16T12:41:41;4.80;;;1.27;;
54555;SDS011;57291;37.520;15.106;2024-01-16T12:46:55;6.22;;;1.50;;
54555;SDS011;57291;37.520;15.106;2024-01-16T12:49:24;6.65;;;1.45;;
54555;SDS011;57291;37.520;15.106;2024-01-16T12:51:52;3.90;;;1.40;;
54555;SDS011;57291;37.520;15.106;2024-01-16T12:54:56;3.60;;;1.42;;
54555;SDS011;57291;37.520;15.106;2024-01-16T12:57:28;7.45;;;1.27;;
54555;SDS011;57291;37.520;15.106;2024-01-16T12:59:57;5.70;;;1.30;;
54555;SDS011;57291;37.520;15.106;2024-01-16T13:02:28;3.70;;;1.40;;
54555;SDS011;57291;37.520;15.106;2024-01-16T13:04:58;6.25;;;1.40;;
54555;SDS011;57291;37.520;15.106;2024-01-16T13:07:29;6.45;;;1.23;;
54555;SDS011;57291;37.520;15.106;2024-01-16T13:10:09;4.95;;;1.70;;
54555;SDS011;57291;37.520;15.106;2024-01-16T13:12:47;5.55;;;1.48;;
54555;SDS011;57291;37.520;15.106;2024-01-16T13:15:14;5.07;;;1.60;;
54555;SDS011;57291;37.520;15.106;2024-01-16T13:17:44;6.95;;;1.48;;
54555;SDS011;57291;37.520;15.106;2024-01-16T13:20:12;4.80;;;1.20;;
54555;SDS011;57291;37.520;15.106;2024-01-16T13:22:41;5.55;;;1.35;;
54555;SDS011;57291;37.520;15.106;2024-01-16T13:25:14;6.43;;;1.60;;
54555;SDS011;57291;37.520;15.106;2024-01-16T13:27:42;4.78;;;1.50;;
54555;SDS011;57291;37.520;15.106;2024-01-16T13:30:09;4.88;;;1.10;;
54555;SDS011;57291;37.520;15.106;2024-01-16T13:32:37;7.15;;;1.45;;
54555;SDS011;57291;37.520;15.106;2024-01-16T13:35:05;4.35;;;1.55;;
54555;SDS011;57291;37.520;15.106;2024-01-16T13:37:36;6.85;;;1.40;;
54555;SDS011;57291;37.520;15.106;2024-01-16T13:40:12;4.63;;;1.40;;
54555;SDS011;57291;37.520;15.106;2024-01-16T13:42:43;5.88;;;1.27;;
54555;SDS011;57291;37.520;15.106;2024-01-16T13:45:10;4.85;;;1.23;;
54555;SDS011;57291;37.520;15.106;2024-01-16T13:47:40;5.15;;;1.27;;
54555;SDS011;57291;37.520;15.106;2024-01-16T13:50:08;6.57;;;1.70;;
54555;SDS011;57291;37.520;15.106;2024-01-16T13:52:36;3.65;;;1.30;;
54555;SDS011;57291;37.520;15.106;2024-01-16T13:55:04;6.95;;;1.80;;
54555;SDS011;57291;37.520;15.106;2024-01-16T13:57:33;7.25;;;1.23;;
54555;SDS011;57291;37.520;15.106;2024-01-16T14:00:04;6.47;;;1.40;;
54555;SDS011;57291;37.520;15.106;2024-01-16T14:02:39;5.50;;;1.42;;
54555;SDS011;57291;37.520;15.106;2024-01-16T14:05:10;6.43;;;1.40;;
54555;SDS011;57291;37.520;15.106;2024-01-16T14:07:42;2.97;;;1.13;;
54555;SDS011;57291;37.520;15.106;2024-01-16T14:10:14;4.45;;;1.13;;
54555;SDS011;57291;37.520;15.106;2024-01-16T14:12:42;3.88;;;1.02;;
54555;SDS011;57291;37.520;15.106;2024-01-16T14:15:11;6.32;;;1.50;;
54555;SDS011;57291;37.520;15.106;2024-01-16T14:17:52;4.15;;;1.10;;
54555;SDS011;57291;37.520;15.106;2024-01-16T14:20:22;5.68;;;1.40;;
54555;SDS011;57291;37.520;15.106;2024-01-16T14:22:54;8.32;;;1.48;;
54555;SDS011;57291;37.520;15.106;2024-01-16T14:25:21;3.45;;;1.23;;
54555;SDS011;57291;37.520;15.106;2024-01-16T14:27:56;7.50;;;1.70;;
54555;SDS011;57291;37.520;15.106;2024-01-16T14:30:25;4.72;;;1.63;;
54555;SDS011;57291;37.520;15.106;2024-01-16T14:32:53;7.55;;;1.70;;
54555;SDS011;57291;37.520;15.106;2024-01-16T14:35:22;5.55;;;1.77;;
54555;SDS011;57291;37.520;15.106;2024-01-16T14:37:51;8.05;;;2.17;;
54555;SDS011;57291;37.520;15.106;2024-01-16T14:40:18;6.30;;;2.03;;
54555;SDS011;57291;37.520;15.106;2024-01-16T14:42:52;8.57;;;2.40;;
54555;SDS011;57291;37.520;15.106;2024-01-16T14:45:21;8.30;;;2.72;;
54555;SDS011;57291;37.520;15.106;2024-01-16T14:47:49;10.02;;;2.75;;
54555;SDS011;57291;37.520;15.106;2024-01-16T14:50:17;8.48;;;2.63;;
54555;SDS011;57291;37.520;15.106;2024-01-16T14:52:45;12.88;;;2.70;;
54555;SDS011;57291;37.520;15.106;2024-01-16T14:55:17;10.45;;;3.35;;